Three Hills, Canada
Current Conditions -  °F | °C
As of 11:00 PM on Sunday 19 Oct 2014 (Local Time) from CYQF Reporting Station
Scattered Clouds Scattered Clouds  
Wind Chill: 43°   Ceiling: Unl
Heat Index: 46°   Visibility: 15mi
Dew Point: 34°   Wind: 7mph
Humidity: 62%   Direction: 180°S
Pressure: 29.64"   Gusts: NA
Location:  51.7°N, 113.26°W
Report Text: CYQF 200500Z 18006KT 15SM SCT250 08/01 A2964 RMK CI4 SLP053 DENSITY ALT 3100FT
Loading
Personal Weather Stations






























Interactive Weather Map
Tropical Storm Tracking
New forecast layout! Learn more

10-Day Weather Forecast

Advertisements
Track Severe Weather on mobile